Time;durP1;ratioP1;P1;durP2;ratioP2;P2;SDS_P1;SDS_P2;PMS_P1;PMS_P2;Temp;Humidity;BMP_temperature;BMP_pressure;BME280_temperature;BME280_humidity;BME280_pressure;Samples;Min_cycle;Max_cycle;Signal;HPM_P1;HPM_P2
2021/10/29 00:01:30;;;;;;;11.85;6.25;;;;;;;7.11;100.00;101018.84;6295898;28;20064;-83
2021/10/29 00:04:31;;;;;;;13.15;6.18;;;;;;;7.11;100.00;101028.44;6298549;28;20044;-83
2021/10/29 00:07:33;;;;;;;15.02;6.70;;;;;;;7.05;100.00;101019.06;6300557;28;20055;-83
2021/10/29 00:10:36;;;;;;;11.57;5.47;;;;;;;7.04;100.00;101021.69;6298997;28;20427;-83
2021/10/29 00:13:37;;;;;;;14.73;5.60;;;;;;;7.06;100.00;101030.34;6299751;28;20048;-83
2021/10/29 00:16:39;;;;;;;15.20;6.50;;;;;;;7.01;100.00;101030.50;6300418;28;20045;-83
2021/10/29 00:19:40;;;;;;;13.23;6.18;;;;;;;7.00;100.00;101020.97;6300589;28;20055;-83
2021/10/29 00:22:42;;;;;;;12.20;6.25;;;;;;;6.99;100.00;101016.63;6300324;28;20048;-83
2021/10/29 00:25:45;;;;;;;10.43;5.43;;;;;;;6.99;100.00;101018.41;6299777;28;20051;-83
2021/10/29 00:28:46;;;;;;;11.98;6.13;;;;;;;6.96;100.00;101023.75;6300153;28;20412;-83
2021/10/29 00:31:48;;;;;;;17.77;7.05;;;;;;;6.93;100.00;101018.63;6298353;28;20048;-83
2021/10/29 00:34:50;;;;;;;13.52;5.95;;;;;;;6.88;100.00;101026.59;6299597;28;20466;-84
2021/10/29 00:37:51;;;;;;;12.88;6.07;;;;;;;6.85;100.00;101024.09;6300425;28;20431;-84
2021/10/29 00:40:54;;;;;;;9.77;5.53;;;;;;;6.85;100.00;101018.88;6299876;28;20519;-84
2021/10/29 00:43:56;;;;;;;15.80;6.82;;;;;;;6.80;100.00;101028.63;6299879;28;20051;-83
2021/10/29 00:46:57;;;;;;;14.38;6.18;;;;;;;6.81;100.00;101022.47;6300802;28;20499;-84
2021/10/29 00:49:59;;;;;;;10.80;5.45;;;;;;;6.81;100.00;101025.97;6300264;28;20415;-84
2021/10/29 00:53:01;;;;;;;13.38;5.55;;;;;;;6.79;100.00;101033.00;6300426;28;20554;-84
2021/10/29 00:56:04;;;;;;;13.60;5.50;;;;;;;6.78;100.00;101035.66;6300310;28;20132;-84
2021/10/29 00:59:05;;;;;;;12.10;5.80;;;;;;;6.77;100.00;101047.03;6300701;28;20056;-84
2021/10/29 01:02:07;;;;;;;11.20;4.75;;;;;;;6.76;100.00;101055.75;6298082;28;20041;-84
2021/10/29 01:05:09;;;;;;;10.68;5.00;;;;;;;6.76;100.00;101042.69;6298998;28;20048;-84
2021/10/29 01:08:11;;;;;;;11.10;5.53;;;;;;;6.77;100.00;101044.41;6300509;28;20052;-83
2021/10/29 01:11:16;;;;;;;12.20;5.78;;;;;;;6.72;100.00;101031.50;6300337;28;20060;-82
2021/10/29 01:14:17;;;;;;;11.68;5.20;;;;;;;6.72;100.00;101031.50;6299520;28;20709;-84
2021/10/29 01:17:19;;;;;;;11.30;4.68;;;;;;;6.73;100.00;101029.75;6300323;28;20079;-84
2021/10/29 01:20:22;;;;;;;10.15;4.68;;;;;;;6.75;100.00;101020.94;6300314;28;20430;-84
2021/10/29 01:23:24;;;;;;;8.60;4.60;;;;;;;6.78;100.00;101025.22;6300243;28;20396;-84
2021/10/29 01:26:25;;;;;;;15.25;5.80;;;;;;;6.72;100.00;101021.06;6300091;28;20040;-84
2021/10/29 01:29:26;;;;;;;13.20;5.53;;;;;;;6.73;100.00;101014.06;6299719;28;20056;-82
2021/10/29 01:32:28;;;;;;;10.55;4.63;;;;;;;6.73;100.00;101006.22;6297763;28;20061;-81
2021/10/29 01:35:31;;;;;;;13.27;5.78;;;;;;;6.72;100.00;101014.94;6299622;28;20055;-81
2021/10/29 01:38:33;;;;;;;11.75;5.57;;;;;;;6.70;100.00;101016.78;6299720;28;20055;-81
2021/10/29 01:41:35;;;;;;;14.15;5.28;;;;;;;6.65;100.00;101000.41;6298122;28;20063;-81
2021/10/29 01:44:36;;;;;;;7.75;4.60;;;;;;;6.63;100.00;101002.19;6298282;28;20045;-82
2021/10/29 01:47:38;;;;;;;14.55;5.28;;;;;;;6.61;100.00;101002.25;6298479;28;20419;-82
2021/10/29 01:50:41;;;;;;;11.63;5.57;;;;;;;6.57;100.00;100985.84;6298640;28;20049;-82
2021/10/29 01:53:42;;;;;;;13.85;5.38;;;;;;;6.56;100.00;100985.88;6298269;28;20052;-82
2021/10/29 01:56:44;;;;;;;14.25;5.40;;;;;;;6.54;100.00;100980.72;6294820;28;20041;-84
2021/10/29 01:59:46;;;;;;;12.30;5.18;;;;;;;6.47;100.00;100979.22;6296670;28;20052;-82
2021/10/29 02:02:47;;;;;;;12.85;5.57;;;;;;;6.47;100.00;100967.91;6298031;28;20044;-82
2021/10/29 02:05:50;;;;;;;15.60;5.70;;;;;;;6.42;100.00;100964.59;6296374;28;20495;-82
2021/10/29 02:08:51;;;;;;;14.68;5.15;;;;;;;6.44;100.00;100965.41;6297973;28;20045;-83
2021/10/29 02:11:52;;;;;;;15.48;5.57;;;;;;;6.38;100.00;100957.78;6298000;28;20427;-82
2021/10/29 02:14:54;;;;;;;12.27;4.90;;;;;;;6.36;100.00;100965.66;6297974;28;20044;-82
2021/10/29 02:17:55;;;;;;;13.88;5.82;;;;;;;6.36;100.00;100963.06;6297897;28;20052;-82
2021/10/29 02:20:58;;;;;;;10.52;5.30;;;;;;;6.37;100.00;100953.47;6297546;28;20053;-82
2021/10/29 02:23:59;;;;;;;12.15;5.22;;;;;;;6.38;100.00;100944.72;6297298;28;20051;-81
2021/10/29 02:27:01;;;;;;;13.65;5.13;;;;;;;6.32;100.00;100945.78;6296525;28;20052;-82
2021/10/29 02:30:03;;;;;;;11.68;5.07;;;;;;;6.30;100.00;100935.38;6295734;28;20044;-82
2021/10/29 02:33:05;;;;;;;11.13;4.60;;;;;;;6.26;100.00;100941.59;6297221;28;20056;-84
2021/10/29 02:36:08;;;;;;;11.43;5.07;;;;;;;6.25;100.00;100936.44;6297119;28;20045;-82
2021/10/29 02:39:09;;;;;;;10.23;4.68;;;;;;;6.22;100.00;100932.19;6297215;28;20049;-82
2021/10/29 02:42:10;;;;;;;11.15;5.45;;;;;;;6.21;100.00;100935.69;6297052;28;20059;-82
2021/10/29 02:45:12;;;;;;;10.75;4.95;;;;;;;6.19;100.00;100927.06;6296357;28;20396;-82
2021/10/29 02:48:13;;;;;;;14.00;5.15;;;;;;;6.19;100.00;100939.25;6297139;28;20048;-82
2021/10/29 02:51:17;;;;;;;10.65;5.15;;;;;;;6.15;100.00;100929.81;6294602;28;20052;-83
2021/10/29 02:54:18;;;;;;;9.98;4.88;;;;;;;6.17;100.00;100930.59;6296578;28;20079;-81
2021/10/29 02:57:19;;;;;;;10.68;4.43;;;;;;;6.17;100.00;100926.25;6292616;28;20055;-81
2021/10/29 03:00:21;;;;;;;11.70;5.03;;;;;;;6.24;100.00;100927.75;6295896;28;20049;-82
2021/10/29 03:03:22;;;;;;;8.65;4.15;;;;;;;6.24;100.00;100925.16;6295774;28;20048;-81
2021/10/29 03:06:25;;;;;;;10.70;4.95;;;;;;;6.32;100.00;100928.38;6295834;28;20040;-81
2021/10/29 03:09:26;;;;;;;17.48;4.68;;;;;;;6.43;100.00;100933.22;6296567;28;20048;-81
2021/10/29 03:12:27;;;;;;;7.63;4.15;;;;;;;6.51;100.00;100931.22;6285926;28;20424;-82
2021/10/29 03:15:29;;;;;;;9.55;4.85;;;;;;;6.56;100.00;100931.91;6290524;28;20041;-82
2021/10/29 03:18:30;;;;;;;12.50;5.30;;;;;;;6.60;100.00;100930.06;6298209;28;20044;-82
2021/10/29 03:21:33;;;;;;;15.07;4.93;;;;;;;6.64;100.00;100923.81;6302821;28;20051;-83
2021/10/29 03:24:34;;;;;;;14.93;5.28;;;;;;;6.66;100.00;100926.38;6298342;28;20056;-83
2021/10/29 03:27:36;;;;;;;10.88;4.57;;;;;;;6.68;100.00;100916.75;6297137;28;20131;-84
2021/10/29 03:30:38;;;;;;;11.13;5.78;;;;;;;6.67;100.00;100918.47;6298432;28;20052;-83
2021/10/29 03:33:40;;;;;;;11.68;4.63;;;;;;;6.68;100.00;100914.97;6274011;28;20118;-84
2021/10/29 03:36:43;;;;;;;9.75;5.20;;;;;;;6.70;100.00;100912.31;6272549;28;20132;-83
2021/10/29 03:39:51;;;;;;;7.82;4.40;;;;;;;6.63;100.00;100910.81;6276253;28;20492;-83
2021/10/29 03:42:57;;;;;;;12.75;5.18;;;;;;;6.56;100.00;100900.59;6276776;28;20056;-83
2021/10/29 03:46:01;;;;;;;8.48;3.95;;;;;;;6.59;100.00;100904.84;6276209;28;20049;-81
2021/10/29 03:49:12;;;;;;;6.22;3.65;;;;;;;6.53;100.00;100907.66;6276794;28;20056;-80
2021/10/29 03:52:22;;;;;;;12.40;5.32;;;;;;;6.50;100.00;100919.06;6286413;28;20048;-81
2021/10/29 03:55:27;;;;;;;9.88;4.07;;;;;;;6.53;100.00;100912.88;6300854;28;20419;-81
2021/10/29 03:58:28;;;;;;;7.40;3.33;;;;;;;6.55;100.00;100913.69;6300388;28;20047;-84
2021/10/29 04:01:30;;;;;;;14.57;4.93;;;;;;;6.56;100.00;100908.41;6301322;28;20071;-81
2021/10/29 04:04:31;;;;;;;7.72;3.85;;;;;;;6.56;100.00;100912.78;6300564;28;20515;-81
2021/10/29 04:07:34;;;;;;;14.50;4.95;;;;;;;6.58;100.00;100908.34;6301085;28;20044;-81
2021/10/29 04:10:40;;;;;;;13.00;4.65;;;;;;;6.61;100.00;100916.09;6300769;28;20075;-80
2021/10/29 04:13:44;;;;;;;12.70;4.70;;;;;;;6.57;100.00;100907.50;6300748;28;20135;-83
2021/10/29 04:16:45;;;;;;;11.48;4.38;;;;;;;6.61;100.00;100903.88;6300938;28;20048;-81
2021/10/29 04:19:46;;;;;;;12.00;4.07;;;;;;;6.64;100.00;100904.69;6298162;28;20430;-83
2021/10/29 04:22:49;;;;;;;11.13;4.53;;;;;;;6.64;100.00;100910.78;6294413;28;20051;-81
2021/10/29 04:25:51;;;;;;;20.05;4.80;;;;;;;6.63;100.00;100898.59;6292616;28;20342;-80
2021/10/29 04:28:55;;;;;;;8.93;4.68;;;;;;;6.61;100.00;100901.28;6290772;28;20049;-82
2021/10/29 04:31:56;;;;;;;12.57;4.68;;;;;;;6.58;100.00;100903.97;6296318;28;20048;-81
2021/10/29 04:34:57;;;;;;;14.95;6.20;;;;;;;6.58;100.00;100901.38;6299462;28;20056;-80
2021/10/29 04:38:00;;;;;;;13.98;4.95;;;;;;;6.57;100.00;100889.22;6299662;28;20483;-83
2021/10/29 04:41:02;;;;;;;16.40;4.90;;;;;;;6.56;100.00;100890.13;6299661;28;20056;-83
2021/10/29 04:44:03;;;;;;;11.88;5.13;;;;;;;6.56;100.00;100882.31;6298833;28;20055;-81
2021/10/29 04:47:05;;;;;;;9.82;4.20;;;;;;;6.55;100.00;100887.59;6299841;28;20045;-83
2021/10/29 04:50:07;;;;;;;11.77;5.32;;;;;;;6.52;100.00;100874.63;6298866;28;20453;-83
2021/10/29 04:53:11;;;;;;;11.02;5.00;;;;;;;6.52;100.00;100877.25;6300453;28;20052;-83
2021/10/29 04:56:13;;;;;;;12.50;4.10;;;;;;;6.51;100.00;100870.31;6299305;28;20044;-82
2021/10/29 04:59:15;;;;;;;11.55;5.18;;;;;;;6.50;100.00;100874.69;6299604;28;20053;-83
2021/10/29 05:02:17;;;;;;;10.15;5.18;;;;;;;6.47;100.00;100871.31;6301620;28;20041;-84
2021/10/29 05:05:18;;;;;;;11.45;4.47;;;;;;;6.44;100.00;100867.06;6302226;28;20415;-81
2021/10/29 05:08:21;;;;;;;11.77;4.85;;;;;;;6.41;100.00;100867.19;6305236;28;20507;-81
2021/10/29 05:11:22;;;;;;;10.88;4.85;;;;;;;6.39;100.00;100861.13;6303317;28;20063;-82
2021/10/29 05:14:23;;;;;;;16.42;5.63;;;;;;;6.36;100.00;100871.72;6300985;28;20498;-84
2021/10/29 05:17:25;;;;;;;10.73;4.93;;;;;;;6.33;100.00;100866.56;6303248;28;20045;-84
2021/10/29 05:20:26;;;;;;;13.50;4.43;;;;;;;6.32;100.00;100857.06;6304950;28;20048;-84
2021/10/29 05:23:29;;;;;;;12.55;5.18;;;;;;;6.30;100.00;100857.09;6299437;28;20067;-81
2021/10/29 05:26:30;;;;;;;13.77;4.55;;;;;;;6.27;100.00;100849.38;6299736;28;20045;-80
2021/10/29 05:29:32;;;;;;;12.30;4.35;;;;;;;6.26;100.00;100849.41;6302411;28;20415;-83
2021/10/29 05:32:34;;;;;;;15.70;6.35;;;;;;;6.23;100.00;100846.94;6300703;28;20048;-83
2021/10/29 05:35:35;;;;;;;11.73;4.63;;;;;;;6.22;100.00;100850.41;6300999;28;20044;-83
2021/10/29 05:38:38;;;;;;;15.32;5.18;;;;;;;6.18;100.00;100839.25;6301540;28;20071;-84
2021/10/29 05:41:40;;;;;;;10.43;4.22;;;;;;;6.19;100.00;100847.94;6300115;28;20089;-84
2021/10/29 05:44:41;;;;;;;10.27;4.57;;;;;;;6.22;100.00;100845.19;6300875;28;20045;-83
2021/10/29 05:47:42;;;;;;;13.32;4.22;;;;;;;6.24;100.00;100846.84;6300206;28;20071;-83
2021/10/29 05:50:48;;;;;;;13.10;4.97;;;;;;;6.33;100.00;100848.31;6301873;28;20045;-83
2021/10/29 05:54:08;;;;;;;16.23;6.57;;;;;;;6.34;100.00;100847.41;6299457;28;20052;-83
2021/10/29 05:57:09;;;;;;;14.45;5.63;;;;;;;6.39;100.00;100847.25;6298497;28;20048;-83
2021/10/29 06:00:12;;;;;;;13.65;5.35;;;;;;;6.41;100.00;100850.66;6298433;28;20056;-83
2021/10/29 06:03:14;;;;;;;12.05;4.85;;;;;;;6.52;100.00;100851.97;6297152;28;20044;-83
2021/10/29 06:06:15;;;;;;;9.63;4.78;;;;;;;6.51;100.00;100852.91;6299224;28;20044;-82
2021/10/29 06:09:18;;;;;;;11.05;4.60;;;;;;;6.53;100.00;100855.44;6297968;28;20083;-82
2021/10/29 06:12:19;;;;;;;15.48;4.95;;;;;;;6.55;100.00;100851.03;6298249;28;20123;-83
2021/10/29 06:15:20;;;;;;;16.95;5.20;;;;;;;6.62;100.00;100860.34;6298479;28;20044;-82
2021/10/29 06:18:24;;;;;;;9.13;4.88;;;;;;;6.70;100.00;100857.47;6299935;28;20063;-83
2021/10/29 06:21:33;;;;;;;11.52;4.93;;;;;;;6.76;100.00;100857.25;6298938;28;20052;-83
2021/10/29 06:24:36;;;;;;;16.25;5.80;;;;;;;6.82;100.00;100855.28;6298086;28;20426;-83
2021/10/29 06:31:12;;;;;;;12.10;5.20;;;;;;;6.95;100.00;100852.19;6215681;28;20046;-83
2021/10/29 06:34:14;;;;;;;12.85;5.78;;;;;;;7.06;100.00;100855.28;6216832;28;20416;-81
2021/10/29 06:37:16;;;;;;;10.77;4.65;;;;;;;7.12;100.00;100857.66;6290488;28;20041;-83
2021/10/29 06:40:19;;;;;;;9.35;5.25;;;;;;;7.11;100.00;100855.97;6296110;28;20067;-83
2021/10/29 06:43:24;;;;;;;11.65;5.18;;;;;;;7.19;100.00;100855.69;6295794;28;20423;-82
2021/10/29 06:46:34;;;;;;;16.13;5.85;;;;;;;7.22;100.00;100851.19;6295688;28;20447;-83
2021/10/29 06:59:49;;;;;;;12.10;4.75;;;;;;;7.32;100.00;100862.16;6298326;28;20221;-85
2021/10/29 07:42:52;;;;;;;15.27;5.18;;;;;;;7.84;100.00;100860.09;6297809;28;20060;-84
2021/10/29 07:45:55;;;;;;;15.07;6.00;;;;;;;7.86;100.00;100860.91;6296836;28;20105;-84
2021/10/29 07:48:56;;;;;;;11.65;5.13;;;;;;;7.98;100.00;100857.78;6297057;28;20534;-85
2021/10/29 07:51:58;;;;;;;13.80;5.70;;;;;;;8.01;100.00;100855.03;6297530;28;20045;-83
2021/10/29 07:55:00;;;;;;;13.45;5.47;;;;;;;8.05;100.00;100864.47;6297428;28;20052;-86
2021/10/29 07:58:02;;;;;;;15.57;6.35;;;;;;;8.13;100.00;100861.56;6297317;28;20049;-85
2021/10/29 08:01:05;;;;;;;13.63;4.53;;;;;;;8.17;100.00;100857.88;6297731;28;20048;-86
2021/10/29 08:04:06;;;;;;;15.10;5.57;;;;;;;8.21;100.00;100863.84;6298409;28;20059;-83
2021/10/29 08:07:08;;;;;;;12.07;6.13;;;;;;;8.31;100.00;100858.16;6298485;28;20488;-85
2021/10/29 08:10:11;;;;;;;14.02;5.20;;;;;;;8.48;100.00;100854.00;6297712;28;20048;-85
2021/10/29 08:13:13;;;;;;;9.07;4.68;;;;;;;8.52;100.00;100852.94;6295802;28;20049;-84
2021/10/29 08:16:16;;;;;;;9.48;4.63;;;;;;;8.55;100.00;100848.44;6299860;28;20048;-85
2021/10/29 08:19:23;;;;;;;13.80;5.72;;;;;;;8.68;100.00;100850.53;6300136;28;20051;-86
2021/10/29 08:22:24;;;;;;;13.98;5.55;;;;;;;8.91;100.00;100846.91;6297226;28;20056;-82
2021/10/29 08:25:26;;;;;;;16.13;5.57;;;;;;;9.07;100.00;100842.63;6298173;28;20515;-83
2021/10/29 08:28:27;;;;;;;10.50;4.55;;;;;;;9.23;100.00;100848.06;6300594;28;20411;-84
2021/10/29 08:31:31;;;;;;;8.15;3.25;;;;;;;9.27;100.00;100842.59;6300764;28;20053;-85
2021/10/29 08:34:33;;;;;;;14.35;5.40;;;;;;;9.40;100.00;100835.84;6299063;28;20064;-83
2021/10/29 08:37:35;;;;;;;9.52;5.03;;;;;;;9.45;100.00;100846.13;6299763;28;20125;-81
2021/10/29 08:40:37;;;;;;;8.68;4.57;;;;;;;9.48;100.00;100845.97;6300709;28;20048;-82
2021/10/29 08:43:39;;;;;;;10.10;4.18;;;;;;;9.59;100.00;100843.69;6299135;28;20057;-83
2021/10/29 08:46:42;;;;;;;10.80;4.28;;;;;;;9.66;100.00;100846.88;6299902;28;20411;-80
2021/10/29 08:49:44;;;;;;;12.57;5.35;;;;;;;9.72;100.00;100840.47;6300629;28;20052;-80
2021/10/29 08:52:47;;;;;;;12.85;5.68;;;;;;;9.77;100.00;100847.22;6298794;28;20048;-82
2021/10/29 08:55:48;;;;;;;11.85;4.53;;;;;;;9.75;100.00;100845.56;6299689;28;20037;-82
2021/10/29 08:59:05;;;;;;;10.07;4.88;;;;;;;9.94;100.00;100842.91;6300521;28;20056;-81
2021/10/29 09:02:14;;;;;;;12.90;4.18;;;;;;;9.89;100.00;100851.84;6299262;28;20488;-80
2021/10/29 09:05:25;;;;;;;10.25;4.10;;;;;;;9.91;100.00;100838.66;6300673;28;20127;-86
2021/10/29 09:08:45;;;;;;;10.35;4.88;;;;;;;9.93;100.00;100841.22;6301305;28;20130;-85
2021/10/29 09:12:02;;;;;;;8.50;3.38;;;;;;;9.94;100.00;100835.88;6300409;28;20045;-83
2021/10/29 09:32:04;;;;;;;9.32;4.57;;;;;;;10.57;100.00;100815.19;6299252;28;20048;-80
2021/10/29 09:35:10;;;;;;;7.40;3.65;;;;;;;10.65;100.00;100814.78;6298810;28;20415;-86
2021/10/29 09:38:13;;;;;;;9.25;4.57;;;;;;;10.72;100.00;100813.56;6299568;28;20040;-84
2021/10/29 09:41:15;;;;;;;6.63;3.88;;;;;;;10.82;100.00;100816.53;6294905;28;20142;-79
2021/10/29 09:44:19;;;;;;;10.68;3.88;;;;;;;10.90;100.00;100807.31;6273768;28;20485;-80
2021/10/29 09:47:24;;;;;;;9.10;3.67;;;;;;;10.95;100.00;100806.22;6290239;28;20127;-80
2021/10/29 09:50:33;;;;;;;6.32;3.55;;;;;;;11.08;100.00;100812.47;6298860;28;20048;-80
2021/10/29 09:53:40;;;;;;;10.13;3.63;;;;;;;11.26;100.00;100819.38;6298870;28;20135;-82
2021/10/29 09:56:52;;;;;;;6.63;3.22;;;;;;;11.50;100.00;100805.81;6298342;28;20056;-80
2021/10/29 09:59:55;;;;;;;7.38;3.67;;;;;;;11.54;100.00;100795.03;6294852;28;20053;-80
2021/10/29 10:02:57;;;;;;;5.95;3.28;;;;;;;11.71;100.00;100791.41;6274070;28;20056;-81
2021/10/29 10:06:02;;;;;;;9.20;4.20;;;;;;;11.77;99.08;100783.19;6297169;28;20072;-80
2021/10/29 10:09:07;;;;;;;10.68;4.18;;;;;;;11.80;100.00;100792.66;6298678;28;20052;-81
2021/10/29 10:12:10;;;;;;;5.75;2.97;;;;;;;11.81;100.00;100797.88;6291522;28;20055;-80
2021/10/29 10:15:12;;;;;;;7.93;4.05;;;;;;;11.92;100.00;100792.00;6273479;28;20045;-80
2021/10/29 10:18:14;;;;;;;6.68;3.58;;;;;;;11.97;100.00;100794.38;6273648;28;20048;-79
2021/10/29 10:21:20;;;;;;;6.80;3.67;;;;;;;12.15;96.88;100793.28;6288009;28;20055;-80
2021/10/29 10:24:27;;;;;;;6.90;3.50;;;;;;;12.12;98.80;100790.81;6297896;28;20495;-84
2021/10/29 10:41:19;;;;;;;7.85;3.45;;;;;;;12.75;95.73;100763.31;6298317;28;20423;-86
2021/10/29 10:44:43;;;;;;;8.68;3.55;;;;;;;12.90;94.58;100754.44;6298094;28;20044;-85
2021/10/29 10:47:50;;;;;;;6.68;3.30;;;;;;;13.09;95.02;100746.22;6297764;28;20058;-83
2021/10/29 10:50:55;;;;;;;8.95;3.63;;;;;;;13.24;93.68;100753.16;6297916;28;20048;-84
2021/10/29 10:54:04;;;;;;;9.65;3.75;;;;;;;13.37;92.99;100750.59;6297968;28;20426;-84
2021/10/29 11:00:31;;;;;;;5.15;2.55;;;;;;;13.69;89.47;100738.75;6294743;28;20443;-83
2021/10/29 11:03:51;;;;;;;8.27;3.45;;;;;;;13.99;89.63;100734.16;6297073;28;20044;-84
2021/10/29 11:10:17;;;;;;;5.85;2.97;;;;;;;14.38;85.88;100735.84;6306614;28;20055;-84
2021/10/29 11:13:18;;;;;;;5.28;2.85;;;;;;;14.36;86.25;100725.41;6294328;28;20519;-84
2021/10/29 11:16:27;;;;;;;5.20;3.38;;;;;;;14.42;85.75;100730.25;6296869;28;20514;-82
2021/10/29 11:19:48;;;;;;;9.15;3.00;;;;;;;14.55;85.20;100724.16;6288582;28;20055;-84
2021/10/29 11:22:49;;;;;;;4.88;2.53;;;;;;;14.76;83.76;100724.41;6298235;28;20049;-85
2021/10/29 11:25:56;;;;;;;6.10;3.55;;;;;;;14.94;83.86;100720.44;6297812;28;20502;-85
2021/10/29 11:29:00;;;;;;;7.57;3.10;;;;;;;15.01;84.15;100721.72;6297529;28;20528;-85
2021/10/29 11:32:04;;;;;;;5.00;2.45;;;;;;;15.28;81.51;100713.56;6298000;28;20494;-85
2021/10/29 11:35:06;;;;;;;3.95;2.40;;;;;;;15.54;80.10;100706.34;6289088;28;20052;-86
2021/10/29 11:38:08;;;;;;;4.13;2.50;;;;;;;15.66;77.23;100704.59;6286510;28;20067;-85
2021/10/29 11:41:15;;;;;;;4.03;2.20;;;;;;;15.77;76.81;100693.19;6289987;28;20060;-82
2021/10/29 11:44:21;;;;;;;4.95;2.30;;;;;;;15.88;75.82;100682.63;6297139;28;20052;-86
2021/10/29 11:47:23;;;;;;;3.28;1.90;;;;;;;16.08;76.46;100679.28;6282512;28;20416;-87
2021/10/29 11:50:25;;;;;;;3.33;1.95;;;;;;;16.14;75.85;100677.97;6292657;28;20044;-86
2021/10/29 11:53:26;;;;;;;3.83;2.15;;;;;;;16.17;75.21;100675.91;6296658;28;20052;-88
2021/10/29 11:56:37;;;;;;;3.45;1.85;;;;;;;16.14;74.05;100676.16;6296975;28;20049;-84
2021/10/29 12:09:39;;;;;;;4.03;2.17;;;;;;;15.82;76.59;100649.47;6300952;28;20049;-86
2021/10/29 12:12:44;;;;;;;3.30;1.85;;;;;;;15.77;76.14;100645.50;6301473;28;20052;-85
2021/10/29 12:15:45;;;;;;;4.15;2.05;;;;;;;15.72;76.47;100636.09;6301702;28;20044;-86
2021/10/29 12:18:55;;;;;;;4.97;2.00;;;;;;;15.72;76.67;100629.97;6301923;28;20041;-84
2021/10/29 12:21:57;;;;;;;;;;;;;;;15.75;77.48;100628.88;6301921;28;20462;-83
2021/10/29 12:25:04;;;;;;;3.38;1.83;;;;;;;15.83;77.06;100622.00;6301272;28;19920;-82
2021/10/29 12:28:09;;;;;;;9.15;2.00;;;;;;;15.68;76.39;100612.59;6301492;28;20040;-84
2021/10/29 12:31:16;;;;;;;2.25;1.42;;;;;;;15.64;75.74;100614.66;6301349;28;20045;-83
2021/10/29 12:34:45;;;;;;;2.85;1.35;;;;;;;15.43;77.65;100609.13;6301267;28;20048;-84
2021/10/29 12:38:25;;;;;;;;;;;;;;;15.40;76.47;100611.19;6301372;28;20102;-82
2021/10/29 13:01:31;;;;;;;2.97;1.70;;;;;;;15.93;74.52;100587.69;6300361;28;20056;-83
2021/10/29 13:04:39;;;;;;;4.00;2.00;;;;;;;15.96;75.70;100593.59;6300353;28;20125;-83
2021/10/29 13:07:40;;;;;;;3.53;1.80;;;;;;;16.13;72.95;100602.03;6299935;28;20048;-83
2021/10/29 13:10:42;;;;;;;2.85;1.63;;;;;;;15.96;73.49;100606.00;6299371;28;20507;-82
2021/10/29 13:13:48;;;;;;;3.42;1.63;;;;;;;15.81;75.72;100612.50;6299252;28;20060;-83
2021/10/29 13:16:51;;;;;;;3.42;1.80;;;;;;;15.65;76.59;100597.78;6299637;28;20399;-84
2021/10/29 13:20:10;;;;;;;5.18;1.70;;;;;;;15.48;77.51;100579.66;6299685;28;20423;-83
2021/10/29 13:36:47;;;;;;;3.83;2.03;;;;;;;14.91;81.51;100576.00;6274833;28;20057;-83
2021/10/29 13:53:14;;;;;;;2.45;1.40;;;;;;;14.81;82.97;100551.19;6274392;28;20048;-86
2021/10/29 13:56:21;;;;;;;2.55;1.80;;;;;;;14.71;84.21;100561.56;6274080;28;20134;-85
2021/10/29 13:59:36;;;;;;;2.65;1.50;;;;;;;14.61;84.13;100551.78;6274532;28;20052;-83
2021/10/29 14:02:53;;;;;;;2.55;1.55;;;;;;;14.55;85.70;100547.81;6274254;28;20057;-83
2021/10/29 14:16:37;;;;;;;3.00;1.55;;;;;;;14.29;85.16;100531.16;6273657;28;20049;-84
2021/10/29 14:29:48;;;;;;;5.43;1.65;;;;;;;14.10;87.16;100530.78;6232171;28;20415;-83
2021/10/29 14:32:52;;;;;;;2.42;1.40;;;;;;;14.12;85.84;100531.50;6273668;28;20051;-83
2021/10/29 14:35:57;;;;;;;2.95;1.67;;;;;;;14.06;86.16;100537.25;6283275;28;20257;-84
2021/10/29 14:39:07;;;;;;;1.92;1.38;;;;;;;14.02;85.43;100536.63;6298562;28;20403;-84
2021/10/29 14:42:11;;;;;;;2.33;1.30;;;;;;;13.99;85.73;100526.28;6298959;28;20056;-84
2021/10/29 14:45:17;;;;;;;2.53;1.45;;;;;;;13.93;85.48;100521.41;6297926;28;20098;-82
2021/10/29 14:48:29;;;;;;;2.88;1.65;;;;;;;13.93;84.13;100524.91;6319057;28;20133;-83
2021/10/29 15:05:06;;;;;;;2.63;1.55;;;;;;;13.71;85.65;100533.47;6322338;28;20094;-83
2021/10/29 15:15:19;;;;;;;5.65;2.67;;;;;;;13.50;86.84;100536.78;6271816;28;20271;-82
2021/10/29 15:18:26;;;;;;;2.67;1.83;;;;;;;13.49;85.29;100537.72;6271930;28;20051;-83
2021/10/29 15:28:18;;;;;;;1.90;1.30;;;;;;;13.31;89.12;100519.59;6265995;28;20037;-84
2021/10/29 15:31:38;;;;;;;5.30;1.83;;;;;;;13.26;89.73;100518.19;6272214;28;20056;-83
2021/10/29 15:41:38;;;;;;;4.78;1.98;;;;;;;12.79;94.11;100533.59;6271904;28;20139;-83
2021/10/29 15:44:43;;;;;;;2.97;2.10;;;;;;;12.71;95.00;100530.59;6271867;28;20179;-83
2021/10/29 15:47:47;;;;;;;3.28;1.98;;;;;;;12.59;96.24;100516.44;6271530;28;20163;-83
2021/10/29 15:50:49;;;;;;;4.82;2.35;;;;;;;12.52;96.92;100509.03;6271874;28;20045;-83
2021/10/29 15:53:51;;;;;;;4.82;2.15;;;;;;;12.40;96.43;100500.16;6276878;28;20060;-84
2021/10/29 15:56:55;;;;;;;2.78;1.70;;;;;;;12.30;96.26;100486.69;6271533;28;20059;-85
2021/10/29 16:00:02;;;;;;;4.75;2.28;;;;;;;12.28;95.68;100490.41;6271659;28;20049;-85
2021/10/29 16:03:10;;;;;;;3.28;1.90;;;;;;;12.27;96.06;100491.34;6276017;28;20049;-86
2021/10/29 16:19:43;;;;;;;3.30;1.98;;;;;;;11.91;99.12;100498.00;6244791;28;20124;-90
2021/10/29 16:22:44;;;;;;;3.97;1.90;;;;;;;11.86;99.24;100495.66;6272354;28;20088;-89
2021/10/29 16:25:52;;;;;;;4.32;2.20;;;;;;;11.83;99.07;100493.22;6272000;28;20049;-89
2021/10/29 16:29:32;;;;;;;3.95;2.05;;;;;;;11.75;98.79;100489.31;6272353;28;20055;-88
2021/10/29 16:35:54;;;;;;;2.00;1.55;;;;;;;11.67;99.12;100498.56;6272299;28;20176;-87
2021/10/29 16:39:01;;;;;;;3.08;2.00;;;;;;;11.60;99.39;100502.50;6275139;28;20053;-87
2021/10/29 16:42:13;;;;;;;8.35;1.80;;;;;;;11.60;99.91;100506.94;6277854;28;20053;-88
2021/10/29 16:45:18;;;;;;;3.63;1.98;;;;;;;11.53;100.00;100522.22;6300277;28;20425;-88
2021/10/29 16:48:24;;;;;;;6.60;1.98;;;;;;;11.45;100.00;100521.88;6304889;28;20043;-88
2021/10/29 16:51:25;;;;;;;2.55;1.77;;;;;;;11.45;100.00;100518.41;6304585;28;20465;-88
2021/10/29 16:54:27;;;;;;;4.35;2.10;;;;;;;11.36;100.00;100525.06;6304064;28;20348;-87
2021/10/29 16:57:28;;;;;;;3.88;2.67;;;;;;;11.30;100.00;100523.63;6303998;28;20495;-85
2021/10/29 17:00:32;;;;;;;2.35;1.85;;;;;;;11.25;100.00;100536.19;6304147;28;20067;-85
2021/10/29 17:03:34;;;;;;;7.03;2.97;;;;;;;11.20;100.00;100524.28;6304652;28;20051;-85
2021/10/29 17:06:36;;;;;;;10.27;3.00;;;;;;;11.18;100.00;100525.22;6302907;28;20064;-85
2021/10/29 17:09:38;;;;;;;5.32;2.45;;;;;;;11.18;100.00;100517.31;6304928;28;20036;-85
2021/10/29 17:12:42;;;;;;;4.53;2.40;;;;;;;11.11;100.00;100512.50;6304399;28;20049;-86
2021/10/29 17:15:44;;;;;;;4.15;1.83;;;;;;;11.17;100.00;100526.16;6303392;28;20048;-85
2021/10/29 17:18:47;;;;;;;6.07;2.55;;;;;;;11.16;100.00;100519.19;6306722;28;20044;-85
2021/10/29 17:21:48;;;;;;;4.35;2.00;;;;;;;11.12;100.00;100519.47;6304227;28;20049;-86
2021/10/29 17:24:50;;;;;;;2.65;2.13;;;;;;;11.09;100.00;100507.34;6308082;28;20045;-85
2021/10/29 17:27:51;;;;;;;5.28;2.42;;;;;;;11.06;100.00;100504.91;6308303;28;20055;-85
2021/10/29 17:30:53;;;;;;;4.93;2.22;;;;;;;11.09;100.00;100509.97;6308877;28;20044;-85
2021/10/29 17:33:56;;;;;;;6.63;2.42;;;;;;;11.08;100.00;100520.56;6308085;28;20072;-85
2021/10/29 17:36:57;;;;;;;3.15;1.70;;;;;;;11.01;100.00;100521.88;6314894;28;20060;-85
2021/10/29 17:39:59;;;;;;;8.65;2.05;;;;;;;11.01;100.00;100530.63;6299593;28;20056;-84
2021/10/29 17:43:00;;;;;;;3.47;2.17;;;;;;;10.94;100.00;100524.00;6310341;28;20059;-85
2021/10/29 17:46:01;;;;;;;4.18;2.05;;;;;;;10.94;100.00;100537.16;6311387;28;20056;-84
2021/10/29 17:49:06;;;;;;;10.25;3.90;;;;;;;10.88;100.00;100530.47;6308041;28;20060;-84